Time;durP1;ratioP1;P1;durP2;ratioP2;P2;SDS_P1;SDS_P2;PMS_P1;PMS_P2;Temp;Humidity;BMP_temperature;BMP_pressure;BME280_temperature;BME280_humidity;BME280_pressure;Samples;Min_cycle;Max_cycle;Signal;HPM_P1;HPM_P2
2021/01/10 00:00:58;;;;;;;30.85;19.40;;;;;;;7.14;44.92;100849.25;1783975;80;21183;-78
2021/01/10 00:03:26;;;;;;;30.43;17.45;;;;;;;7.15;44.90;100854.94;1784311;80;21025;-78
2021/01/10 00:05:55;;;;;;;28.62;17.65;;;;;;;7.18;44.84;100862.69;1784257;80;21132;-78
2021/01/10 00:08:23;;;;;;;27.65;17.50;;;;;;;7.20;44.81;100862.06;1784083;80;21156;-78
2021/01/10 00:10:51;;;;;;;29.95;18.42;;;;;;;7.20;44.77;100868.72;1784114;80;21419;-79
2021/01/10 00:13:18;;;;;;;29.05;18.07;;;;;;;7.18;44.76;100870.19;1784186;79;21431;-78
2021/01/10 00:15:46;;;;;;;29.32;18.52;;;;;;;7.18;44.78;100866.68;1784584;80;21140;-78
2021/01/10 00:18:14;;;;;;;35.35;21.62;;;;;;;7.18;44.82;100864.02;1784187;80;21115;-78
2021/01/10 00:20:41;;;;;;;45.28;26.12;;;;;;;7.17;44.76;100872.95;1784522;79;21650;-78
2021/01/10 00:23:09;;;;;;;44.77;27.00;;;;;;;7.16;44.79;100871.27;1784272;80;21198;-77
2021/01/10 00:25:38;;;;;;;45.12;25.95;;;;;;;7.15;44.79;100872.25;1784245;80;21120;-78
2021/01/10 00:28:07;;;;;;;50.70;26.07;;;;;;;7.14;44.77;100876.73;1784303;80;21551;-79
2021/01/10 00:30:34;;;;;;;45.83;25.70;;;;;;;7.10;44.84;100877.95;1784192;79;21180;-78
2021/01/10 00:33:03;;;;;;;45.25;25.25;;;;;;;7.06;44.88;100871.19;1784034;80;21187;-79
2021/01/10 00:35:32;;;;;;;43.50;25.00;;;;;;;7.04;44.89;100875.77;1784197;80;21323;-77
2021/01/10 00:38:00;;;;;;;41.40;23.70;;;;;;;7.02;44.91;100873.24;1784095;80;21654;-78
2021/01/10 00:40:28;;;;;;;37.05;22.32;;;;;;;7.00;44.92;100869.88;1784001;80;21172;-77
2021/01/10 00:42:56;;;;;;;38.70;23.77;;;;;;;6.99;44.94;100876.14;1784146;79;21144;-77
2021/01/10 00:45:24;;;;;;;41.23;24.95;;;;;;;6.99;44.94;100875.30;1784121;79;21626;-77
2021/01/10 00:47:54;;;;;;;38.85;24.63;;;;;;;6.97;44.97;100874.59;1784323;80;21374;-77
2021/01/10 00:50:28;;;;;;;39.55;24.65;;;;;;;6.95;44.96;100872.07;1784045;80;21200;-78
2021/01/10 00:52:55;;;;;;;45.10;26.37;;;;;;;6.91;45.02;100872.45;1784309;80;21119;-78
2021/01/10 00:55:25;;;;;;;40.70;25.97;;;;;;;6.88;45.09;100866.87;1784293;80;21175;-78
2021/01/10 00:57:54;;;;;;;39.45;25.15;;;;;;;6.88;45.08;100870.02;1784201;80;21127;-78
2021/01/10 01:00:24;;;;;;;39.90;24.87;;;;;;;6.86;45.08;100871.00;1784158;80;21994;-78
2021/01/10 01:02:52;;;;;;;37.40;25.55;;;;;;;6.83;45.11;100866.40;1784247;80;21156;-78
2021/01/10 01:05:22;;;;;;;40.48;26.23;;;;;;;6.81;45.17;100866.53;1784052;80;21186;-78
2021/01/10 01:07:50;;;;;;;38.45;24.50;;;;;;;6.80;45.21;100868.81;1784193;80;21184;-78
2021/01/10 01:10:19;;;;;;;39.55;25.35;;;;;;;6.79;45.25;100873.78;1784103;80;21120;-78
2021/01/10 01:12:47;;;;;;;40.70;24.47;;;;;;;6.77;45.30;100873.56;1784331;79;21128;-78
2021/01/10 01:15:15;;;;;;;40.88;24.20;;;;;;;6.74;45.32;100881.30;1783916;80;21144;-77
2021/01/10 01:17:42;;;;;;;38.05;23.18;;;;;;;6.75;45.32;100886.12;1783588;80;21579;-78
2021/01/10 01:20:10;;;;;;;37.28;23.22;;;;;;;6.74;45.33;100876.45;1784023;80;21104;-78
2021/01/10 01:22:39;;;;;;;39.23;24.20;;;;;;;6.73;45.36;100872.11;1784197;80;21135;-78
2021/01/10 01:25:10;;;;;;;38.02;22.27;;;;;;;6.73;45.38;100874.77;1784029;80;21156;-77
2021/01/10 01:27:37;;;;;;;38.10;22.73;;;;;;;6.71;45.39;100874.88;1784204;80;21156;-78
2021/01/10 01:30:06;;;;;;;38.53;22.52;;;;;;;6.69;45.46;100868.84;1784229;80;21152;-78
2021/01/10 01:32:35;;;;;;;34.58;21.05;;;;;;;6.70;45.45;100864.36;1803312;79;21187;-78
2021/01/10 01:35:05;;;;;;;31.33;19.92;;;;;;;6.71;45.45;100863.38;1816060;79;21163;-78
2021/01/10 01:37:36;;;;;;;30.05;18.80;;;;;;;6.73;45.51;100862.30;1815701;79;21210;-78
2021/01/10 01:40:06;;;;;;;26.35;17.45;;;;;;;6.74;45.59;100872.47;1815800;79;21032;-78
2021/01/10 01:42:34;;;;;;;27.10;16.30;;;;;;;6.76;45.63;100870.51;1816381;79;21643;-77
2021/01/10 01:45:07;;;;;;;27.67;16.80;;;;;;;6.80;45.63;100862.64;1815829;79;21147;-78
2021/01/10 01:47:35;;;;;;;25.40;16.82;;;;;;;6.83;45.61;100869.91;1816030;78;21175;-77
2021/01/10 01:50:05;;;;;;;24.95;16.35;;;;;;;6.85;45.62;100871.09;1815908;78;21373;-79
2021/01/10 01:52:34;;;;;;;26.23;16.70;;;;;;;6.84;45.67;100871.59;1816550;79;21009;-79
2021/01/10 01:55:04;;;;;;;25.30;16.25;;;;;;;6.86;45.71;100874.15;1816362;79;21595;-78
2021/01/10 01:57:32;;;;;;;26.82;16.67;;;;;;;6.87;45.65;100870.51;1816401;79;21175;-79
2021/01/10 02:00:00;;;;;;;23.87;16.23;;;;;;;6.88;45.67;100870.02;1816187;78;21132;-78
2021/01/10 02:02:29;;;;;;;23.38;16.00;;;;;;;6.88;45.67;100869.53;1816563;79;22619;-77
2021/01/10 02:05:02;;;;;;;26.12;16.20;;;;;;;6.90;45.66;100876.89;1814325;78;21545;-77
2021/01/10 02:08:04;;;;;;;24.45;16.42;;;;;;;6.91;45.65;100875.95;1803472;79;21657;-80
2021/01/10 02:10:38;;;;;;;25.68;16.02;;;;;;;6.92;45.64;100880.30;1751877;81;21219;-79
2021/01/10 02:13:15;;;;;;;26.73;17.00;;;;;;;6.91;45.66;100875.95;1736885;82;21147;-77
2021/01/10 02:15:43;;;;;;;24.12;17.17;;;;;;;6.91;45.65;100881.27;1740312;82;21812;-78
2021/01/10 02:18:11;;;;;;;26.40;16.42;;;;;;;6.90;45.71;100880.89;1739960;82;21168;-78
2021/01/10 02:20:39;;;;;;;25.37;17.17;;;;;;;6.90;45.69;100878.23;1726326;81;21191;-79
2021/01/10 02:23:17;;;;;;;25.48;16.37;;;;;;;6.92;45.70;100880.78;1754087;81;21547;-78
2021/01/10 02:25:47;;;;;;;27.93;17.75;;;;;;;6.94;45.69;100876.17;1753784;81;21132;-79
2021/01/10 02:28:18;;;;;;;26.00;17.30;;;;;;;6.94;45.67;100877.01;1753162;81;21444;-80
2021/01/10 02:30:46;;;;;;;27.27;17.67;;;;;;;6.93;45.65;100871.33;1753657;81;21218;-79
2021/01/10 02:33:36;;;;;;;28.02;17.90;;;;;;;6.91;45.68;100870.63;1742179;81;21227;-80
2021/01/10 02:36:10;;;;;;;28.32;17.57;;;;;;;6.91;45.68;100878.61;1711144;82;21757;-80
2021/01/10 02:38:46;;;;;;;26.48;17.12;;;;;;;6.89;45.71;100875.21;1708842;82;21196;-78
2021/01/10 02:41:31;;;;;;;28.67;17.35;;;;;;;6.89;45.75;100881.02;1706499;84;21401;-78
2021/01/10 02:44:14;;;;;;;30.48;18.70;;;;;;;6.88;45.74;100874.86;1739182;81;21196;-78
2021/01/10 02:46:41;;;;;;;26.65;17.92;;;;;;;6.87;45.76;100883.82;1744603;81;21187;-79
2021/01/10 02:49:10;;;;;;;27.07;18.10;;;;;;;6.89;45.73;100875.70;1689876;81;21168;-79
2021/01/10 02:51:38;;;;;;;30.02;18.20;;;;;;;6.88;45.71;100872.19;1742886;81;21184;-78
2021/01/10 02:54:06;;;;;;;29.82;19.12;;;;;;;6.90;45.69;100873.39;1750678;81;21829;-79
2021/01/10 02:56:38;;;;;;;26.65;18.35;;;;;;;6.89;45.64;100879.20;1755926;81;21853;-79
2021/01/10 02:59:06;;;;;;;26.70;17.35;;;;;;;6.89;45.65;100872.55;1679222;84;21204;-78
2021/01/10 03:01:34;;;;;;;29.07;18.98;;;;;;;6.90;45.66;100874.72;1743967;81;21225;-80
2021/01/10 03:04:03;;;;;;;27.37;17.00;;;;;;;6.89;45.64;100875.21;1757513;81;21168;-78
2021/01/10 03:06:31;;;;;;;26.62;17.80;;;;;;;6.90;45.67;100874.23;1744212;81;21613;-80
2021/01/10 03:08:59;;;;;;;24.43;17.37;;;;;;;6.90;45.64;100872.90;1736987;81;21193;-80
2021/01/10 03:11:26;;;;;;;29.15;18.82;;;;;;;6.90;45.65;100874.23;1746191;81;21195;-79
2021/01/10 03:13:54;;;;;;;28.90;18.73;;;;;;;6.91;45.63;100874.62;1694910;81;21619;-80
2021/01/10 03:16:22;;;;;;;31.37;20.05;;;;;;;6.90;45.63;100878.72;1754383;81;21176;-80
2021/01/10 03:18:50;;;;;;;32.42;19.07;;;;;;;6.92;45.61;100881.63;1754510;81;21384;-79
2021/01/10 03:21:18;;;;;;;32.58;18.67;;;;;;;6.92;45.57;100888.78;1754255;81;21216;-80
2021/01/10 03:23:46;;;;;;;32.67;19.70;;;;;;;6.91;45.57;100885.27;1751096;81;21152;-80
2021/01/10 03:26:13;;;;;;;33.48;19.52;;;;;;;6.90;45.56;100886.22;1758974;81;21192;-79
2021/01/10 03:28:41;;;;;;;28.62;18.20;;;;;;;6.91;45.54;100886.60;1737218;82;21601;-79
2021/01/10 03:31:09;;;;;;;26.35;18.05;;;;;;;6.92;45.48;100881.63;1759055;81;21195;-79
2021/01/10 03:33:38;;;;;;;28.10;17.32;;;;;;;6.93;45.43;100883.80;1753972;81;21192;-78
2021/01/10 03:36:06;;;;;;;25.35;16.60;;;;;;;6.91;45.49;100885.27;1752824;81;21179;-80
2021/01/10 03:38:34;;;;;;;27.45;18.05;;;;;;;6.89;45.51;100893.84;1760786;81;21239;-78
2021/01/10 03:41:03;;;;;;;30.43;18.27;;;;;;;6.87;45.51;100890.48;1764266;81;21189;-79
2021/01/10 03:43:30;;;;;;;26.30;17.05;;;;;;;6.88;45.49;100892.16;1764163;81;21576;-81
2021/01/10 03:46:00;;;;;;;29.55;17.98;;;;;;;6.88;45.49;100899.31;1764014;81;21215;-80
2021/01/10 03:48:28;;;;;;;29.52;18.52;;;;;;;6.88;45.50;100905.97;1764460;81;21200;-81
2021/01/10 03:50:55;;;;;;;28.27;17.70;;;;;;;6.87;45.53;100910.45;1763795;81;21203;-77
2021/01/10 03:53:23;;;;;;;27.80;18.80;;;;;;;6.88;45.54;100906.81;1763986;81;21208;-79
2021/01/10 03:55:51;;;;;;;29.90;18.92;;;;;;;6.86;45.50;100909.61;1764237;81;21768;-78
2021/01/10 03:58:18;;;;;;;33.48;20.52;;;;;;;6.87;45.50;100907.78;1764159;81;21588;-77
2021/01/10 04:00:46;;;;;;;32.83;19.85;;;;;;;6.87;45.50;100906.45;1763879;81;21180;-77
2021/01/10 04:03:14;;;;;;;32.23;20.00;;;;;;;6.85;45.52;100903.89;1763701;81;21542;-78
2021/01/10 04:05:42;;;;;;;34.50;20.60;;;;;;;6.85;45.55;100900.39;1763785;81;21172;-77
2021/01/10 04:08:09;;;;;;;34.95;22.40;;;;;;;6.84;45.60;100906.20;1763191;81;21443;-77
2021/01/10 04:10:37;;;;;;;37.30;21.73;;;;;;;6.83;45.55;100903.19;1763555;81;21176;-78
2021/01/10 04:13:04;;;;;;;37.08;22.42;;;;;;;6.85;45.45;100909.70;1763630;81;21192;-77
2021/01/10 04:15:32;;;;;;;38.67;23.70;;;;;;;6.83;45.41;100906.34;1763603;81;21169;-78
2021/01/10 04:18:00;;;;;;;39.63;22.37;;;;;;;6.81;45.43;100902.48;1763998;81;21164;-77
2021/01/10 04:20:27;;;;;;;39.35;24.52;;;;;;;6.82;45.44;100907.31;1764118;81;21372;-76
2021/01/10 04:22:55;;;;;;;38.95;23.62;;;;;;;6.81;45.52;100907.80;1740418;81;21213;-78
2021/01/10 04:25:23;;;;;;;37.60;23.25;;;;;;;6.79;45.58;100904.40;1737550;82;21080;-78
2021/01/10 04:27:51;;;;;;;36.03;22.05;;;;;;;6.77;45.65;100907.68;1736306;82;21195;-78
2021/01/10 04:30:19;;;;;;;33.70;20.90;;;;;;;6.77;45.70;100908.17;1735903;82;21204;-78
2021/01/10 04:32:46;;;;;;;31.35;19.65;;;;;;;6.76;45.75;100903.30;1736338;82;22226;-78
2021/01/10 04:35:14;;;;;;;30.08;19.67;;;;;;;6.77;45.77;100905.51;1735281;82;21212;-78
2021/01/10 04:37:42;;;;;;;29.87;19.23;;;;;;;6.78;45.82;100912.52;1735308;82;21220;-78
2021/01/10 04:40:10;;;;;;;31.17;19.50;;;;;;;6.78;45.87;100916.02;1736068;82;21180;-79
2021/01/10 04:42:39;;;;;;;30.82;19.85;;;;;;;6.80;45.85;100914.56;1735823;82;21216;-79
2021/01/10 04:45:08;;;;;;;28.70;18.80;;;;;;;6.81;45.84;100921.57;1736425;81;21390;-78
2021/01/10 04:47:36;;;;;;;33.67;21.50;;;;;;;6.81;45.84;100923.78;1707313;82;21564;-80
2021/01/10 04:50:04;;;;;;;42.33;26.05;;;;;;;6.81;45.82;100923.78;1725783;81;21680;-79
2021/01/10 04:52:33;;;;;;;47.03;28.32;;;;;;;6.84;45.72;100923.52;1737486;82;20985;-79
2021/01/10 04:55:01;;;;;;;46.45;27.48;;;;;;;6.84;45.64;100923.52;1707579;82;21203;-75
2021/01/10 04:57:29;;;;;;;51.40;29.02;;;;;;;6.83;45.62;100928.48;1736621;82;21232;-78
2021/01/10 04:59:56;;;;;;;47.75;27.05;;;;;;;6.83;45.63;100927.64;1707500;82;21231;-79
2021/01/10 05:02:25;;;;;;;45.43;27.52;;;;;;;6.84;45.65;100930.66;1708012;82;21172;-77
2021/01/10 05:04:55;;;;;;;41.42;24.92;;;;;;;6.84;45.69;100935.49;1737474;82;21631;-77
2021/01/10 05:07:23;;;;;;;35.38;22.48;;;;;;;6.87;45.74;100938.41;1737676;82;21662;-78
2021/01/10 05:09:50;;;;;;;35.17;22.32;;;;;;;6.85;45.83;100939.84;1737962;81;21524;-78
2021/01/10 05:12:18;;;;;;;33.88;21.52;;;;;;;6.84;45.88;100941.31;1756532;81;21682;-77
2021/01/10 05:14:46;;;;;;;32.42;20.23;;;;;;;6.82;45.98;100944.10;1763325;81;21650;-79
2021/01/10 05:17:20;;;;;;;31.02;19.90;;;;;;;6.85;46.00;100946.98;1763782;81;21175;-78
2021/01/10 05:19:48;;;;;;;30.27;19.02;;;;;;;6.85;46.00;100948.31;1764141;81;21188;-78
2021/01/10 05:22:17;;;;;;;28.05;18.25;;;;;;;6.86;46.02;100947.38;1764168;81;21830;-79
2021/01/10 05:24:49;;;;;;;27.80;18.10;;;;;;;6.87;46.02;100953.05;1712489;81;21606;-79
2021/01/10 05:27:17;;;;;;;29.42;18.20;;;;;;;6.86;46.05;100958.87;1706005;82;21682;-79
2021/01/10 05:29:46;;;;;;;31.82;19.32;;;;;;;6.89;46.02;100965.75;1734094;82;21199;-78
2021/01/10 05:32:13;;;;;;;29.42;18.73;;;;;;;6.90;46.01;100968.77;1734166;82;21678;-77
2021/01/10 05:34:42;;;;;;;28.15;17.85;;;;;;;6.92;46.02;100966.00;1705093;82;22663;-78
2021/01/10 05:37:14;;;;;;;30.52;19.82;;;;;;;6.95;45.96;100970.61;1682267;82;21077;-78
2021/01/10 05:39:45;;;;;;;29.23;19.70;;;;;;;6.95;45.95;100975.94;1736416;81;21224;-77
2021/01/10 05:42:13;;;;;;;30.68;19.07;;;;;;;6.95;45.98;100973.27;1739069;81;21508;-76
2021/01/10 05:44:47;;;;;;;34.40;18.85;;;;;;;6.95;46.00;100975.94;1737204;82;21175;-77
2021/01/10 05:47:16;;;;;;;29.37;18.85;;;;;;;6.96;46.00;100977.62;1737287;82;21370;-76
2021/01/10 05:49:54;;;;;;;27.85;18.77;;;;;;;6.97;45.98;100983.30;1737924;82;21164;-77
2021/01/10 05:52:22;;;;;;;;;;;;;;;6.97;46.00;100980.64;1739943;82;21228;-78
2021/01/10 05:54:55;;;;;;;30.55;18.73;;;;;;;6.98;46.04;100982.33;1737399;81;20297;-77
2021/01/10 05:57:27;;;;;;;28.35;18.07;;;;;;;6.97;46.10;100988.63;1738922;81;21567;-76
2021/01/10 05:59:56;;;;;;;33.60;20.85;;;;;;;6.98;46.11;100986.81;1771856;81;21374;-79
2021/01/10 06:02:34;;;;;;;37.28;22.73;;;;;;;7.00;46.13;100986.22;1771729;81;21056;-77
2021/01/10 06:05:18;;;;;;;43.25;25.95;;;;;;;7.00;46.10;100983.07;1771748;81;21168;-77
2021/01/10 06:07:47;;;;;;;37.33;24.40;;;;;;;6.99;46.05;100982.68;1772173;81;21119;-75
2021/01/10 06:10:28;;;;;;;41.30;25.55;;;;;;;7.00;46.02;100988.88;1771806;81;21176;-75
2021/01/10 06:13:06;;;;;;;41.70;25.37;;;;;;;6.98;46.00;100995.64;1771800;81;21356;-76
2021/01/10 06:15:35;;;;;;;41.02;25.77;;;;;;;6.97;46.00;100995.28;1739602;81;21265;-75
2021/01/10 06:18:05;;;;;;;40.23;25.30;;;;;;;6.95;46.04;101001.23;1737469;82;21156;-76
2021/01/10 06:20:34;;;;;;;37.35;24.23;;;;;;;6.95;46.10;101003.02;1737611;82;21176;-76
2021/01/10 06:23:04;;;;;;;37.53;22.93;;;;;;;6.95;46.13;101013.67;1737921;82;21259;-76
2021/01/10 06:25:37;;;;;;;34.18;21.35;;;;;;;6.95;46.15;101015.88;1737566;82;22505;-76
2021/01/10 06:28:11;;;;;;;36.25;23.10;;;;;;;6.95;46.20;101018.55;1737690;82;21707;-75
2021/01/10 06:30:53;;;;;;;35.05;22.50;;;;;;;6.95;46.20;101021.20;1738273;82;22195;-76
2021/01/10 06:33:30;;;;;;;39.42;24.23;;;;;;;6.95;46.26;101019.87;1737996;82;21619;-76
2021/01/10 06:36:05;;;;;;;36.70;23.60;;;;;;;6.95;46.26;101018.55;1737544;82;21207;-76
2021/01/10 06:38:36;;;;;;;40.52;24.63;;;;;;;6.97;46.28;101024.58;1737573;82;21334;-77
2021/01/10 06:41:36;;;;;;;36.33;23.40;;;;;;;6.99;46.31;101030.63;1737754;82;21200;-76
2021/01/10 06:44:11;;;;;;;38.02;22.32;;;;;;;7.01;46.35;101041.17;1737842;82;21216;-76
2021/01/10 06:46:39;;;;;;;36.42;22.22;;;;;;;7.01;46.38;101040.69;1737416;82;21203;-76
2021/01/10 06:49:08;;;;;;;31.60;20.23;;;;;;;7.05;46.41;101043.48;1685082;82;21203;-76
2021/01/10 06:51:36;;;;;;;34.60;19.80;;;;;;;7.06;46.45;101029.67;1737263;81;21234;-76
2021/01/10 06:54:05;;;;;;;35.35;21.62;;;;;;;7.11;46.41;101037.66;1762419;81;21203;-75
2021/01/10 06:56:32;;;;;;;32.88;21.20;;;;;;;7.13;46.40;101034.89;1763504;81;21627;-76
2021/01/10 06:59:20;;;;;;;34.05;21.45;;;;;;;7.16;46.35;101038.62;1763749;81;21179;-76
2021/01/10 07:01:53;;;;;;;36.30;22.37;;;;;;;7.17;46.33;101042.12;1764363;81;21619;-75
2021/01/10 07:04:24;;;;;;;32.05;20.43;;;;;;;7.19;46.35;101038.88;1763816;81;21208;-76
2021/01/10 07:06:53;;;;;;;31.87;19.82;;;;;;;7.20;46.39;101041.41;1764138;81;21224;-76
2021/01/10 07:09:21;;;;;;;32.53;20.05;;;;;;;7.20;46.34;101040.07;1764272;81;21172;-76
2021/01/10 07:11:51;;;;;;;34.03;20.75;;;;;;;7.25;46.33;101045.03;1764225;81;21211;-78
2021/01/10 07:14:24;;;;;;;34.18;21.50;;;;;;;7.28;46.28;101043.47;1764488;81;21136;-77
2021/01/10 07:17:10;;;;;;;35.20;22.52;;;;;;;7.31;46.25;101041.87;1764410;81;21251;-77
2021/01/10 07:19:43;;;;;;;37.40;22.45;;;;;;;7.34;46.18;101046.97;1764591;81;21064;-75
2021/01/10 07:22:24;;;;;;;40.10;24.12;;;;;;;7.37;46.12;101050.73;1764385;81;21184;-76
2021/01/10 07:24:52;;;;;;;39.70;23.18;;;;;;;7.40;46.04;101046.95;1764378;81;21112;-78
2021/01/10 07:27:34;;;;;;;38.33;22.55;;;;;;;7.41;45.97;101045.52;1764326;80;21101;-78
2021/01/10 07:30:24;;;;;;;33.98;21.70;;;;;;;7.45;46.08;101051.42;1764365;81;21333;-78
2021/01/10 07:32:52;;;;;;;35.10;20.68;;;;;;;7.52;46.08;101054.81;1745737;81;20974;-78
2021/01/10 07:35:19;;;;;;;30.77;19.48;;;;;;;7.61;45.96;101052.73;1766556;81;21105;-77
2021/01/10 07:37:47;;;;;;;32.58;19.70;;;;;;;7.68;45.91;101056.25;1767073;81;20974;-76
2021/01/10 07:40:23;;;;;;;30.68;18.75;;;;;;;7.75;45.78;101050.77;1766896;81;21619;-76
2021/01/10 07:43:02;;;;;;;40.28;19.50;;;;;;;7.84;45.73;101052.19;1766782;81;21811;-77
2021/01/10 07:45:39;;;;;;;32.42;20.12;;;;;;;7.94;45.60;101051.43;1766187;81;21179;-76
2021/01/10 07:48:07;;;;;;;31.75;19.73;;;;;;;8.02;45.53;101051.65;1766553;81;21535;-77
2021/01/10 07:50:34;;;;;;;40.12;20.32;;;;;;;8.15;45.43;101054.99;1766492;81;21516;-77
2021/01/10 07:53:03;;;;;;;34.70;20.08;;;;;;;8.27;45.30;101064.66;1766709;81;21015;-77
2021/01/10 07:55:32;;;;;;;31.02;18.90;;;;;;;8.39;45.04;101068.13;1766632;81;21205;-77
2021/01/10 07:58:08;;;;;;;38.70;19.70;;;;;;;8.49;44.73;101073.53;1766335;81;21171;-77
2021/01/10 08:00:49;;;;;;;31.95;20.52;;;;;;;8.52;44.56;101067.45;1766478;81;21200;-77
2021/01/10 08:03:24;;;;;;;31.70;19.90;;;;;;;8.59;44.43;101074.47;1764766;81;21211;-76
2021/01/10 08:06:04;;;;;;;37.30;20.50;;;;;;;8.65;44.37;101072.61;1766797;81;21191;-76
2021/01/10 08:08:46;;;;;;;29.60;18.50;;;;;;;8.68;44.24;101072.84;1766636;81;22306;-76
2021/01/10 08:11:30;;;;;;;27.48;18.50;;;;;;;8.68;44.01;101068.84;1766247;81;21195;-76
2021/01/10 08:13:58;;;;;;;33.23;19.17;;;;;;;8.70;43.99;101068.20;1766707;81;21583;-76
2021/01/10 08:16:29;;;;;;;28.17;18.40;;;;;;;8.71;43.91;101068.06;1766999;81;21570;-76
2021/01/10 08:19:04;;;;;;;25.92;16.97;;;;;;;8.70;43.79;101071.72;1762353;81;21200;-76
2021/01/10 08:21:32;;;;;;;29.55;17.37;;;;;;;8.68;43.72;101067.02;1736704;82;22678;-76
2021/01/10 08:24:03;;;;;;;27.98;17.23;;;;;;;8.68;43.64;101068.84;1734196;82;21204;-77
2021/01/10 08:26:33;;;;;;;28.73;18.07;;;;;;;8.67;43.61;101061.78;1705566;84;21192;-78
2021/01/10 08:29:03;;;;;;;29.55;18.05;;;;;;;8.66;43.58;101065.44;1651365;84;21223;-77
2021/01/10 08:31:31;;;;;;;27.77;17.37;;;;;;;8.61;43.66;101064.49;1732904;82;21199;-78
2021/01/10 08:34:05;;;;;;;30.12;17.73;;;;;;;8.58;43.78;101064.28;1720654;83;21508;-79
2021/01/10 08:36:35;;;;;;;26.90;17.65;;;;;;;8.57;43.91;101063.06;1726888;83;21547;-77
2021/01/10 08:39:09;;;;;;;31.70;18.95;;;;;;;8.55;44.02;101052.52;1737067;82;21221;-79
2021/01/10 08:41:42;;;;;;;30.72;18.40;;;;;;;8.55;44.06;101056.52;1737501;82;22087;-79
2021/01/10 08:44:17;;;;;;;29.55;18.57;;;;;;;8.56;44.15;101061.38;1737717;82;21172;-78
2021/01/10 08:46:48;;;;;;;26.97;17.67;;;;;;;8.55;44.23;101049.84;1738017;82;21408;-77
2021/01/10 08:49:20;;;;;;;28.35;18.30;;;;;;;8.55;44.26;101057.02;1737945;82;21650;-77
2021/01/10 08:51:50;;;;;;;29.70;19.02;;;;;;;8.54;44.33;101046.83;1738339;82;21180;-79
2021/01/10 08:54:22;;;;;;;30.20;19.10;;;;;;;8.54;44.38;101045.49;1737884;82;22088;-78
2021/01/10 08:56:55;;;;;;;29.72;19.30;;;;;;;8.57;44.33;101039.88;1738399;82;21136;-78
2021/01/10 08:59:24;;;;;;;29.65;18.52;;;;;;;8.57;44.35;101044.37;1738041;82;21395;-77
2021/01/10 09:01:51;;;;;;;26.85;18.12;;;;;;;8.57;44.39;101043.87;1733092;82;21145;-77
2021/01/10 09:04:19;;;;;;;27.25;17.52;;;;;;;8.56;44.37;101047.53;1742655;81;21156;-78
2021/01/10 09:07:14;;;;;;;26.85;17.90;;;;;;;8.57;44.35;101039.03;1734785;82;21202;-77
2021/01/10 09:10:04;;;;;;;31.57;19.65;;;;;;;8.58;44.35;101036.25;1772422;81;21174;-79
2021/01/10 09:12:36;;;;;;;31.80;18.87;;;;;;;8.58;44.36;101024.69;1756021;81;21208;-79
2021/01/10 09:15:11;;;;;;;30.27;18.75;;;;;;;8.57;44.42;101023.84;1763142;81;21938;-77
2021/01/10 09:17:49;;;;;;;31.42;18.12;;;;;;;8.58;44.47;101016.22;1763658;81;21029;-81
2021/01/10 09:20:29;;;;;;;27.42;18.00;;;;;;;8.59;44.49;101013.05;1762719;81;21183;-78
2021/01/10 09:22:57;;;;;;;30.57;18.55;;;;;;;8.61;44.44;101013.27;1764061;81;21101;-78
2021/01/10 09:25:27;;;;;;;29.85;18.35;;;;;;;8.64;44.39;101016.17;1763296;81;49260;-78
2021/01/10 09:28:12;;;;;;;33.00;19.80;;;;;;;8.64;44.40;101022.36;1731673;81;21234;-78
2021/01/10 09:30:50;;;;;;;31.45;19.48;;;;;;;8.66;44.47;101026.22;1736361;82;21130;-79
2021/01/10 09:33:25;;;;;;;29.65;19.10;;;;;;;8.67;44.58;101016.38;1732319;82;21197;-78
2021/01/10 09:35:54;;;;;;;31.95;19.52;;;;;;;8.70;44.57;101018.80;1736611;81;21241;-80
2021/01/10 09:38:25;;;;;;;32.42;19.77;;;;;;;8.74;44.56;101018.89;1736804;82;21879;-79
2021/01/10 09:41:12;;;;;;;31.70;19.55;;;;;;;8.75;44.57;101016.57;1736888;82;21565;-79
2021/01/10 09:43:55;;;;;;;28.07;17.80;;;;;;;8.76;44.60;101018.26;1736840;82;21240;-79
2021/01/10 09:46:37;;;;;;;25.92;17.02;;;;;;;8.76;44.52;101012.42;1744246;81;21191;-79
2021/01/10 09:49:25;;;;;;;26.90;16.87;;;;;;;8.76;44.37;101016.92;1761855;81;21199;-79
2021/01/10 09:52:02;;;;;;;29.00;18.50;;;;;;;8.78;44.32;101020.33;1708011;82;21389;-79
2021/01/10 09:54:38;;;;;;;28.83;18.48;;;;;;;8.80;44.27;101011.67;1761695;81;21243;-79
2021/01/10 09:57:18;;;;;;;29.20;18.70;;;;;;;8.82;44.19;101011.91;1745672;81;21230;-79
2021/01/10 09:59:49;;;;;;;33.10;19.73;;;;;;;8.83;44.23;101010.92;1735369;82;21217;-77
2021/01/10 10:02:25;;;;;;;32.13;19.10;;;;;;;8.86;44.34;101005.82;1735588;82;21594;-80
2021/01/10 10:04:55;;;;;;;30.60;18.77;;;;;;;8.88;44.26;101009.19;1737136;81;21704;-79
2021/01/10 10:07:35;;;;;;;30.32;18.35;;;;;;;8.92;44.20;101013.28;1732096;82;21222;-79
2021/01/10 10:10:07;;;;;;;28.85;18.45;;;;;;;8.94;44.10;101005.97;1737212;82;21235;-79
2021/01/10 10:12:34;;;;;;;29.00;18.30;;;;;;;8.94;44.05;101007.31;1710293;81;21200;-79
2021/01/10 10:15:08;;;;;;;32.70;18.80;;;;;;;8.96;44.08;101007.20;1700302;84;21766;-80
2021/01/10 10:17:37;;;;;;;31.57;19.45;;;;;;;8.97;44.03;101015.06;1708940;84;22243;-79
2021/01/10 10:20:06;;;;;;;29.72;18.30;;;;;;;8.98;44.02;101005.22;1740204;81;21077;-80
2021/01/10 10:22:35;;;;;;;27.52;17.95;;;;;;;8.99;44.06;101006.91;1730699;82;21200;-79
2021/01/10 10:25:06;;;;;;;27.80;16.97;;;;;;;9.00;44.00;101009.95;1766627;81;21190;-80
2021/01/10 10:27:34;;;;;;;28.57;17.87;;;;;;;9.00;43.92;101008.12;1749407;82;21192;-80
2021/01/10 10:30:01;;;;;;;31.27;18.37;;;;;;;9.00;43.92;101012.13;1736180;82;22242;-79
2021/01/10 10:32:29;;;;;;;28.90;17.82;;;;;;;9.00;43.90;101016.64;1735030;82;21172;-79
2021/01/10 10:34:57;;;;;;;34.90;17.77;;;;;;;9.00;43.86;101020.15;1708875;82;21199;-80
2021/01/10 10:37:25;;;;;;;39.20;24.30;;;;;;;9.00;43.89;101021.48;1736524;82;21204;-79
2021/01/10 10:39:53;;;;;;;33.92;21.05;;;;;;;9.02;43.89;101024.02;1729123;82;21205;-81
2021/01/10 10:42:21;;;;;;;28.30;17.62;;;;;;;9.01;43.87;101024.50;1707712;84;22147;-80
2021/01/10 10:44:49;;;;;;;28.90;18.87;;;;;;;9.04;43.80;101018.06;1729774;82;21031;-81
2021/01/10 10:47:17;;;;;;;26.50;17.55;;;;;;;9.03;43.86;101021.20;1734298;82;21612;-80
2021/01/10 10:49:45;;;;;;;27.65;18.20;;;;;;;9.03;43.78;101023.87;1735695;82;21209;-80
2021/01/10 10:52:14;;;;;;;30.45;18.07;;;;;;;9.04;43.78;101024.74;1735313;82;21403;-81
2021/01/10 10:54:43;;;;;;;37.08;20.70;;;;;;;9.03;43.80;101021.20;1735707;81;21593;-80
2021/01/10 10:57:10;;;;;;;34.45;20.50;;;;;;;9.05;43.79;101021.92;1744114;81;21200;-81
2021/01/10 10:59:39;;;;;;;33.30;19.37;;;;;;;9.06;43.85;101028.11;1758710;81;21599;-76
2021/01/10 11:02:10;;;;;;;30.97;18.80;;;;;;;9.05;43.87;101023.26;1758302;81;21187;-78
2021/01/10 11:04:41;;;;;;;35.33;20.15;;;;;;;9.05;43.84;101018.41;1758511;81;21371;-79
2021/01/10 11:07:09;;;;;;;33.35;19.75;;;;;;;9.03;43.87;101022.53;1752766;81;21418;-78
2021/01/10 11:09:37;;;;;;;30.15;19.52;;;;;;;9.04;43.95;101022.07;1734323;82;21730;-77
2021/01/10 11:12:11;;;;;;;30.10;18.10;;;;;;;9.03;43.89;101019.86;1706573;84;21524;-79
2021/01/10 11:14:38;;;;;;;27.80;17.85;;;;;;;9.03;43.94;101022.53;1721641;82;21162;-80
2021/01/10 11:17:09;;;;;;;26.40;17.77;;;;;;;9.02;43.93;101027.53;1738646;82;21185;-78
2021/01/10 11:19:38;;;;;;;26.87;17.40;;;;;;;9.04;43.97;101025.59;1737273;82;22626;-79
2021/01/10 11:22:06;;;;;;;28.65;18.42;;;;;;;9.09;43.88;101021.17;1736439;82;21215;-78
2021/01/10 11:24:34;;;;;;;30.10;17.15;;;;;;;9.10;43.84;101024.19;1736264;81;21172;-78
2021/01/10 11:27:03;;;;;;;31.95;18.95;;;;;;;9.10;43.89;101031.72;1738470;81;21217;-77
2021/01/10 11:29:30;;;;;;;31.90;19.90;;;;;;;9.12;43.80;101030.23;1738412;81;21197;-79
2021/01/10 11:31:58;;;;;;;29.07;18.73;;;;;;;9.11;43.77;101024.05;1736831;82;21209;-79
2021/01/10 11:34:26;;;;;;;34.45;20.70;;;;;;;9.12;43.78;101027.56;1739881;82;21568;-79